sensor_id;sensor_type;location;lat;lon;timestamp;P1;durP1;ratioP1;P2;durP2;ratioP2
85133;SDS011;75590;42.690;23.356;2024-01-11T00:00:13;28.17;;;15.10;;
85133;SDS011;75590;42.690;23.356;2024-01-11T00:02:38;35.30;;;16.60;;
85133;SDS011;75590;42.690;23.356;2024-01-11T00:05:04;29.55;;;13.32;;
85133;SDS011;75590;42.690;23.356;2024-01-11T00:07:30;30.80;;;14.90;;
85133;SDS011;75590;42.690;23.356;2024-01-11T00:09:55;25.20;;;13.10;;
85133;SDS011;75590;42.690;23.356;2024-01-11T00:12:21;29.58;;;13.60;;
85133;SDS011;75590;42.690;23.356;2024-01-11T00:14:46;21.80;;;11.90;;
85133;SDS011;75590;42.690;23.356;2024-01-11T00:17:12;26.83;;;11.30;;
85133;SDS011;75590;42.690;23.356;2024-01-11T00:19:37;25.17;;;11.57;;
85133;SDS011;75590;42.690;23.356;2024-01-11T00:22:03;27.42;;;12.02;;
85133;SDS011;75590;42.690;23.356;2024-01-11T00:24:28;26.80;;;12.85;;
85133;SDS011;75590;42.690;23.356;2024-01-11T00:26:54;20.00;;;10.00;;
85133;SDS011;75590;42.690;23.356;2024-01-11T00:29:19;14.07;;;8.80;;
85133;SDS011;75590;42.690;23.356;2024-01-11T00:31:45;19.88;;;10.45;;
85133;SDS011;75590;42.690;23.356;2024-01-11T00:34:10;19.15;;;9.77;;
85133;SDS011;75590;42.690;23.356;2024-01-11T00:36:36;18.40;;;9.05;;
85133;SDS011;75590;42.690;23.356;2024-01-11T00:39:02;17.20;;;8.63;;
85133;SDS011;75590;42.690;23.356;2024-01-11T00:41:28;18.15;;;8.40;;
85133;SDS011;75590;42.690;23.356;2024-01-11T00:43:53;20.95;;;11.02;;
85133;SDS011;75590;42.690;23.356;2024-01-11T00:46:19;14.93;;;8.07;;
85133;SDS011;75590;42.690;23.356;2024-01-11T00:48:44;25.70;;;10.55;;
85133;SDS011;75590;42.690;23.356;2024-01-11T00:51:09;16.55;;;8.82;;
85133;SDS011;75590;42.690;23.356;2024-01-11T00:53:35;28.35;;;10.93;;
85133;SDS011;75590;42.690;23.356;2024-01-11T00:56:00;20.52;;;8.77;;
85133;SDS011;75590;42.690;23.356;2024-01-11T00:58:26;27.05;;;10.20;;
85133;SDS011;75590;42.690;23.356;2024-01-11T01:00:52;14.88;;;7.80;;
85133;SDS011;75590;42.690;23.356;2024-01-11T01:03:21;20.05;;;8.23;;
85133;SDS011;75590;42.690;23.356;2024-01-11T01:05:47;17.23;;;9.57;;
85133;SDS011;75590;42.690;23.356;2024-01-11T01:08:12;12.90;;;7.93;;
85133;SDS011;75590;42.690;23.356;2024-01-11T01:10:38;22.00;;;8.38;;
85133;SDS011;75590;42.690;23.356;2024-01-11T01:13:04;19.98;;;11.25;;
85133;SDS011;75590;42.690;23.356;2024-01-11T01:15:30;26.08;;;13.07;;
85133;SDS011;75590;42.690;23.356;2024-01-11T01:17:55;26.23;;;10.20;;
85133;SDS011;75590;42.690;23.356;2024-01-11T01:20:21;25.67;;;12.38;;
85133;SDS011;75590;42.690;23.356;2024-01-11T01:22:47;32.30;;;17.10;;
85133;SDS011;75590;42.690;23.356;2024-01-11T01:25:14;31.27;;;17.23;;
85133;SDS011;75590;42.690;23.356;2024-01-11T01:27:39;59.85;;;31.00;;
85133;SDS011;75590;42.690;23.356;2024-01-11T01:30:05;62.60;;;33.60;;
85133;SDS011;75590;42.690;23.356;2024-01-11T01:32:31;30.50;;;17.83;;
85133;SDS011;75590;42.690;23.356;2024-01-11T01:34:57;20.90;;;11.55;;
85133;SDS011;75590;42.690;23.356;2024-01-11T01:37:23;37.38;;;19.90;;
85133;SDS011;75590;42.690;23.356;2024-01-11T01:39:48;37.13;;;16.35;;
85133;SDS011;75590;42.690;23.356;2024-01-11T01:42:13;33.33;;;14.32;;
85133;SDS011;75590;42.690;23.356;2024-01-11T01:44:39;28.35;;;13.57;;
85133;SDS011;75590;42.690;23.356;2024-01-11T01:47:06;20.63;;;10.23;;
85133;SDS011;75590;42.690;23.356;2024-01-11T01:49:33;28.20;;;13.20;;
85133;SDS011;75590;42.690;23.356;2024-01-11T01:51:58;28.00;;;16.00;;
85133;SDS011;75590;42.690;23.356;2024-01-11T01:54:24;25.27;;;14.82;;
85133;SDS011;75590;42.690;23.356;2024-01-11T01:56:50;30.77;;;16.58;;
85133;SDS011;75590;42.690;23.356;2024-01-11T01:59:16;20.08;;;11.82;;
85133;SDS011;75590;42.690;23.356;2024-01-11T02:01:43;23.45;;;13.18;;
85133;SDS011;75590;42.690;23.356;2024-01-11T02:04:09;24.38;;;12.20;;
85133;SDS011;75590;42.690;23.356;2024-01-11T02:06:34;30.27;;;14.00;;
85133;SDS011;75590;42.690;23.356;2024-01-11T02:09:00;17.60;;;9.27;;
85133;SDS011;75590;42.690;23.356;2024-01-11T02:11:29;14.13;;;6.85;;
85133;SDS011;75590;42.690;23.356;2024-01-11T02:13:55;12.85;;;5.68;;
85133;SDS011;75590;42.690;23.356;2024-01-11T02:16:22;14.07;;;5.60;;
85133;SDS011;75590;42.690;23.356;2024-01-11T02:18:48;11.75;;;7.40;;
85133;SDS011;75590;42.690;23.356;2024-01-11T02:21:14;7.68;;;4.43;;
85133;SDS011;75590;42.690;23.356;2024-01-11T02:23:42;6.35;;;4.93;;
85133;SDS011;75590;42.690;23.356;2024-01-11T02:26:12;10.93;;;6.07;;
85133;SDS011;75590;42.690;23.356;2024-01-11T02:28:42;11.90;;;7.40;;
85133;SDS011;75590;42.690;23.356;2024-01-11T02:31:08;15.52;;;8.43;;
85133;SDS011;75590;42.690;23.356;2024-01-11T02:33:34;16.13;;;7.78;;
85133;SDS011;75590;42.690;23.356;2024-01-11T02:35:59;10.20;;;6.65;;
85133;SDS011;75590;42.690;23.356;2024-01-11T02:38:26;15.48;;;6.60;;
85133;SDS011;75590;42.690;23.356;2024-01-11T02:40:52;9.93;;;5.03;;
85133;SDS011;75590;42.690;23.356;2024-01-11T02:43:19;10.15;;;4.70;;
85133;SDS011;75590;42.690;23.356;2024-01-11T02:45:45;10.40;;;5.43;;
85133;SDS011;75590;42.690;23.356;2024-01-11T02:48:10;20.02;;;7.13;;
85133;SDS011;75590;42.690;23.356;2024-01-11T02:50:36;12.85;;;6.45;;
85133;SDS011;75590;42.690;23.356;2024-01-11T02:53:01;7.70;;;5.47;;
85133;SDS011;75590;42.690;23.356;2024-01-11T02:55:27;13.65;;;6.05;;
85133;SDS011;75590;42.690;23.356;2024-01-11T02:57:52;11.30;;;4.93;;
85133;SDS011;75590;42.690;23.356;2024-01-11T03:00:18;13.38;;;5.82;;
85133;SDS011;75590;42.690;23.356;2024-01-11T03:02:44;14.20;;;6.20;;
85133;SDS011;75590;42.690;23.356;2024-01-11T03:05:09;9.70;;;5.53;;
85133;SDS011;75590;42.690;23.356;2024-01-11T03:07:35;8.90;;;5.50;;
85133;SDS011;75590;42.690;23.356;2024-01-11T03:10:01;10.02;;;6.10;;
85133;SDS011;75590;42.690;23.356;2024-01-11T03:12:26;8.90;;;6.60;;
85133;SDS011;75590;42.690;23.356;2024-01-11T03:14:52;11.48;;;5.53;;
85133;SDS011;75590;42.690;23.356;2024-01-11T03:17:17;10.88;;;5.53;;
85133;SDS011;75590;42.690;23.356;2024-01-11T03:19:43;11.40;;;5.93;;
85133;SDS011;75590;42.690;23.356;2024-01-11T03:22:08;14.52;;;6.75;;
85133;SDS011;75590;42.690;23.356;2024-01-11T03:24:37;14.02;;;5.60;;
85133;SDS011;75590;42.690;23.356;2024-01-11T03:27:03;13.95;;;6.50;;
85133;SDS011;75590;42.690;23.356;2024-01-11T03:29:30;17.42;;;7.15;;
85133;SDS011;75590;42.690;23.356;2024-01-11T03:31:57;13.32;;;6.80;;
85133;SDS011;75590;42.690;23.356;2024-01-11T03:34:22;17.02;;;7.38;;
85133;SDS011;75590;42.690;23.356;2024-01-11T03:36:48;19.15;;;8.85;;
85133;SDS011;75590;42.690;23.356;2024-01-11T03:39:13;20.73;;;10.82;;
85133;SDS011;75590;42.690;23.356;2024-01-11T03:41:48;18.45;;;9.55;;
85133;SDS011;75590;42.690;23.356;2024-01-11T03:44:14;14.32;;;7.18;;
85133;SDS011;75590;42.690;23.356;2024-01-11T03:46:39;21.00;;;9.43;;
85133;SDS011;75590;42.690;23.356;2024-01-11T03:49:04;21.38;;;10.02;;
85133;SDS011;75590;42.690;23.356;2024-01-11T03:51:32;18.10;;;9.25;;
85133;SDS011;75590;42.690;23.356;2024-01-11T03:53:58;20.90;;;9.65;;
85133;SDS011;75590;42.690;23.356;2024-01-11T03:56:23;18.90;;;10.93;;
85133;SDS011;75590;42.690;23.356;2024-01-11T03:58:49;26.08;;;9.10;;
85133;SDS011;75590;42.690;23.356;2024-01-11T04:01:15;17.33;;;10.10;;
85133;SDS011;75590;42.690;23.356;2024-01-11T04:03:41;23.58;;;10.82;;
85133;SDS011;75590;42.690;23.356;2024-01-11T04:06:07;19.52;;;9.68;;
85133;SDS011;75590;42.690;23.356;2024-01-11T04:08:32;25.80;;;12.30;;
85133;SDS011;75590;42.690;23.356;2024-01-11T04:10:58;21.55;;;11.18;;
85133;SDS011;75590;42.690;23.356;2024-01-11T04:13:29;23.48;;;11.77;;
85133;SDS011;75590;42.690;23.356;2024-01-11T04:15:54;17.70;;;9.38;;
85133;SDS011;75590;42.690;23.356;2024-01-11T04:18:20;25.08;;;10.60;;
85133;SDS011;75590;42.690;23.356;2024-01-11T04:20:45;17.95;;;10.00;;
85133;SDS011;75590;42.690;23.356;2024-01-11T04:23:10;22.23;;;10.15;;
85133;SDS011;75590;42.690;23.356;2024-01-11T04:25:36;15.95;;;10.30;;
85133;SDS011;75590;42.690;23.356;2024-01-11T04:28:02;25.55;;;11.35;;
85133;SDS011;75590;42.690;23.356;2024-01-11T04:30:27;19.77;;;11.18;;
85133;SDS011;75590;42.690;23.356;2024-01-11T04:32:53;28.10;;;14.73;;
85133;SDS011;75590;42.690;23.356;2024-01-11T04:35:18;21.48;;;10.98;;
85133;SDS011;75590;42.690;23.356;2024-01-11T04:37:44;32.13;;;14.57;;
85133;SDS011;75590;42.690;23.356;2024-01-11T04:40:09;31.88;;;15.95;;
85133;SDS011;75590;42.690;23.356;2024-01-11T04:42:35;31.40;;;13.60;;
85133;SDS011;75590;42.690;23.356;2024-01-11T04:45:01;18.02;;;12.10;;
85133;SDS011;75590;42.690;23.356;2024-01-11T04:47:26;17.13;;;9.57;;
85133;SDS011;75590;42.690;23.356;2024-01-11T04:49:52;14.70;;;9.25;;
85133;SDS011;75590;42.690;23.356;2024-01-11T04:52:17;20.58;;;9.75;;
85133;SDS011;75590;42.690;23.356;2024-01-11T04:54:42;18.55;;;10.00;;
85133;SDS011;75590;42.690;23.356;2024-01-11T04:57:10;16.73;;;10.18;;
85133;SDS011;75590;42.690;23.356;2024-01-11T04:59:35;18.17;;;11.02;;
85133;SDS011;75590;42.690;23.356;2024-01-11T05:02:01;20.55;;;11.45;;
85133;SDS011;75590;42.690;23.356;2024-01-11T05:04:26;26.08;;;13.15;;
85133;SDS011;75590;42.690;23.356;2024-01-11T05:06:51;20.45;;;12.63;;
85133;SDS011;75590;42.690;23.356;2024-01-11T05:09:17;21.05;;;12.10;;
85133;SDS011;75590;42.690;23.356;2024-01-11T05:11:43;29.13;;;12.75;;
85133;SDS011;75590;42.690;23.356;2024-01-11T05:14:08;27.13;;;15.57;;
85133;SDS011;75590;42.690;23.356;2024-01-11T05:16:34;23.60;;;13.32;;
85133;SDS011;75590;42.690;23.356;2024-01-11T05:19:01;14.90;;;10.70;;
85133;SDS011;75590;42.690;23.356;2024-01-11T05:21:26;16.27;;;10.07;;
85133;SDS011;75590;42.690;23.356;2024-01-11T05:23:52;26.25;;;15.55;;
85133;SDS011;75590;42.690;23.356;2024-01-11T05:26:18;24.27;;;15.55;;
85133;SDS011;75590;42.690;23.356;2024-01-11T05:28:43;23.38;;;12.45;;
85133;SDS011;75590;42.690;23.356;2024-01-11T05:31:10;32.13;;;17.05;;
85133;SDS011;75590;42.690;23.356;2024-01-11T05:33:36;31.08;;;16.52;;
85133;SDS011;75590;42.690;23.356;2024-01-11T05:36:02;33.78;;;17.85;;
85133;SDS011;75590;42.690;23.356;2024-01-11T05:38:28;25.90;;;14.88;;
85133;SDS011;75590;42.690;23.356;2024-01-11T05:40:54;33.25;;;16.92;;
85133;SDS011;75590;42.690;23.356;2024-01-11T05:43:19;25.73;;;15.93;;
85133;SDS011;75590;42.690;23.356;2024-01-11T05:45:45;36.30;;;17.13;;
85133;SDS011;75590;42.690;23.356;2024-01-11T05:48:10;31.95;;;16.40;;
85133;SDS011;75590;42.690;23.356;2024-01-11T05:50:37;41.70;;;15.00;;
85133;SDS011;75590;42.690;23.356;2024-01-11T05:53:03;32.97;;;16.67;;
85133;SDS011;75590;42.690;23.356;2024-01-11T05:55:29;29.58;;;15.40;;
85133;SDS011;75590;42.690;23.356;2024-01-11T05:57:55;29.52;;;15.50;;
85133;SDS011;75590;42.690;23.356;2024-01-11T06:00:20;25.85;;;12.63;;
85133;SDS011;75590;42.690;23.356;2024-01-11T06:02:46;22.13;;;14.43;;
85133;SDS011;75590;42.690;23.356;2024-01-11T06:05:11;29.05;;;14.65;;
85133;SDS011;75590;42.690;23.356;2024-01-11T06:07:40;23.23;;;13.38;;
85133;SDS011;75590;42.690;23.356;2024-01-11T06:10:06;25.33;;;13.15;;
85133;SDS011;75590;42.690;23.356;2024-01-11T06:12:34;29.83;;;13.00;;
85133;SDS011;75590;42.690;23.356;2024-01-11T06:15:00;20.05;;;12.77;;
85133;SDS011;75590;42.690;23.356;2024-01-11T06:17:26;30.17;;;14.77;;
85133;SDS011;75590;42.690;23.356;2024-01-11T06:19:52;25.52;;;15.80;;
85133;SDS011;75590;42.690;23.356;2024-01-11T06:22:18;24.38;;;14.25;;
85133;SDS011;75590;42.690;23.356;2024-01-11T06:24:44;23.55;;;13.57;;
85133;SDS011;75590;42.690;23.356;2024-01-11T06:27:09;28.55;;;14.60;;
85133;SDS011;75590;42.690;23.356;2024-01-11T06:29:35;28.15;;;14.75;;
85133;SDS011;75590;42.690;23.356;2024-01-11T06:32:00;28.40;;;16.13;;
85133;SDS011;75590;42.690;23.356;2024-01-11T06:34:26;25.55;;;15.48;;
85133;SDS011;75590;42.690;23.356;2024-01-11T06:36:51;30.23;;;16.60;;
85133;SDS011;75590;42.690;23.356;2024-01-11T06:39:17;42.33;;;18.33;;
85133;SDS011;75590;42.690;23.356;2024-01-11T06:41:43;36.03;;;15.95;;
85133;SDS011;75590;42.690;23.356;2024-01-11T06:44:08;36.67;;;18.17;;
85133;SDS011;75590;42.690;23.356;2024-01-11T06:46:34;34.40;;;17.95;;
85133;SDS011;75590;42.690;23.356;2024-01-11T06:49:01;40.30;;;18.75;;
85133;SDS011;75590;42.690;23.356;2024-01-11T06:51:27;41.33;;;19.33;;
85133;SDS011;75590;42.690;23.356;2024-01-11T06:53:52;49.97;;;23.35;;
85133;SDS011;75590;42.690;23.356;2024-01-11T06:56:18;38.88;;;21.15;;
85133;SDS011;75590;42.690;23.356;2024-01-11T06:58:45;51.03;;;24.23;;
85133;SDS011;75590;42.690;23.356;2024-01-11T07:01:13;46.55;;;21.98;;
85133;SDS011;75590;42.690;23.356;2024-01-11T07:03:39;42.33;;;22.27;;
85133;SDS011;75590;42.690;23.356;2024-01-11T07:06:05;44.88;;;23.80;;
85133;SDS011;75590;42.690;23.356;2024-01-11T07:08:32;51.30;;;25.85;;
85133;SDS011;75590;42.690;23.356;2024-01-11T07:10:59;45.67;;;24.85;;
85133;SDS011;75590;42.690;23.356;2024-01-11T07:13:29;55.10;;;28.80;;
85133;SDS011;75590;42.690;23.356;2024-01-11T07:15:55;62.60;;;29.73;;
85133;SDS011;75590;42.690;23.356;2024-01-11T07:18:22;58.40;;;29.77;;
85133;SDS011;75590;42.690;23.356;2024-01-11T07:20:47;55.80;;;28.30;;
85133;SDS011;75590;42.690;23.356;2024-01-11T07:23:13;53.95;;;28.55;;
85133;SDS011;75590;42.690;23.356;2024-01-11T07:25:39;57.45;;;29.55;;
85133;SDS011;75590;42.690;23.356;2024-01-11T07:28:06;50.92;;;27.45;;
85133;SDS011;75590;42.690;23.356;2024-01-11T07:30:32;52.90;;;27.70;;
85133;SDS011;75590;42.690;23.356;2024-01-11T07:32:59;53.05;;;28.02;;
85133;SDS011;75590;42.690;23.356;2024-01-11T07:35:25;52.72;;;24.73;;
85133;SDS011;75590;42.690;23.356;2024-01-11T07:37:50;45.35;;;24.00;;
85133;SDS011;75590;42.690;23.356;2024-01-11T07:40:16;46.78;;;24.13;;
85133;SDS011;75590;42.690;23.356;2024-01-11T07:42:42;49.95;;;25.35;;
85133;SDS011;75590;42.690;23.356;2024-01-11T07:45:08;49.03;;;24.85;;
85133;SDS011;75590;42.690;23.356;2024-01-11T07:47:35;42.53;;;22.95;;
85133;SDS011;75590;42.690;23.356;2024-01-11T07:50:02;45.40;;;21.42;;
85133;SDS011;75590;42.690;23.356;2024-01-11T07:52:40;38.78;;;21.33;;
85133;SDS011;75590;42.690;23.356;2024-01-11T07:57:37;29.92;;;16.52;;
85133;SDS011;75590;42.690;23.356;2024-01-11T08:00:03;34.08;;;18.27;;
85133;SDS011;75590;42.690;23.356;2024-01-11T08:02:31;31.13;;;17.63;;
85133;SDS011;75590;42.690;23.356;2024-01-11T08:05:00;25.35;;;14.57;;
85133;SDS011;75590;42.690;23.356;2024-01-11T08:07:28;24.15;;;13.15;;
85133;SDS011;75590;42.690;23.356;2024-01-11T08:09:54;35.17;;;18.88;;
85133;SDS011;75590;42.690;23.356;2024-01-11T08:12:20;33.40;;;20.38;;
85133;SDS011;75590;42.690;23.356;2024-01-11T08:14:46;39.60;;;20.88;;
85133;SDS011;75590;42.690;23.356;2024-01-11T08:17:12;34.30;;;20.25;;
85133;SDS011;75590;42.690;23.356;2024-01-11T08:19:41;44.13;;;20.95;;
85133;SDS011;75590;42.690;23.356;2024-01-11T08:22:10;44.53;;;22.23;;
85133;SDS011;75590;42.690;23.356;2024-01-11T08:24:36;42.20;;;22.23;;
85133;SDS011;75590;42.690;23.356;2024-01-11T08:27:02;34.22;;;19.65;;
85133;SDS011;75590;42.690;23.356;2024-01-11T08:29:27;44.42;;;22.65;;
85133;SDS011;75590;42.690;23.356;2024-01-11T08:31:53;34.40;;;18.95;;
85133;SDS011;75590;42.690;23.356;2024-01-11T08:34:20;40.25;;;19.40;;
85133;SDS011;75590;42.690;23.356;2024-01-11T08:36:46;35.15;;;20.40;;
85133;SDS011;75590;42.690;23.356;2024-01-11T08:39:11;38.85;;;21.58;;
85133;SDS011;75590;42.690;23.356;2024-01-11T08:41:38;40.00;;;21.15;;
85133;SDS011;75590;42.690;23.356;2024-01-11T08:44:04;40.25;;;20.23;;
85133;SDS011;75590;42.690;23.356;2024-01-11T08:46:32;42.65;;;22.08;;
85133;SDS011;75590;42.690;23.356;2024-01-11T08:49:01;39.55;;;20.27;;
85133;SDS011;75590;42.690;23.356;2024-01-11T08:51:28;45.17;;;21.63;;
85133;SDS011;75590;42.690;23.356;2024-01-11T08:53:54;40.33;;;21.13;;
85133;SDS011;75590;42.690;23.356;2024-01-11T08:56:20;42.22;;;22.20;;
85133;SDS011;75590;42.690;23.356;2024-01-11T08:58:46;37.20;;;22.17;;
85133;SDS011;75590;42.690;23.356;2024-01-11T09:01:13;35.03;;;21.90;;
85133;SDS011;75590;42.690;23.356;2024-01-11T09:03:39;31.65;;;20.17;;
85133;SDS011;75590;42.690;23.356;2024-01-11T09:06:05;39.20;;;22.55;;
85133;SDS011;75590;42.690;23.356;2024-01-11T09:08:31;39.35;;;22.23;;
85133;SDS011;75590;42.690;23.356;2024-01-11T09:10:56;39.13;;;22.70;;
85133;SDS011;75590;42.690;23.356;2024-01-11T09:13:25;31.55;;;17.85;;
85133;SDS011;75590;42.690;23.356;2024-01-11T09:15:53;31.48;;;18.42;;
85133;SDS011;75590;42.690;23.356;2024-01-11T09:18:19;34.50;;;18.52;;
85133;SDS011;75590;42.690;23.356;2024-01-11T09:20:46;37.90;;;21.80;;
85133;SDS011;75590;42.690;23.356;2024-01-11T09:23:13;34.50;;;21.77;;
85133;SDS011;75590;42.690;23.356;2024-01-11T09:25:39;33.67;;;20.27;;
85133;SDS011;75590;42.690;23.356;2024-01-11T09:28:05;33.33;;;19.50;;
85133;SDS011;75590;42.690;23.356;2024-01-11T09:30:30;34.45;;;19.40;;
85133;SDS011;75590;42.690;23.356;2024-01-11T09:32:56;37.67;;;20.60;;
85133;SDS011;75590;42.690;23.356;2024-01-11T09:35:21;36.65;;;20.88;;
85133;SDS011;75590;42.690;23.356;2024-01-11T09:37:48;34.58;;;19.65;;
85133;SDS011;75590;42.690;23.356;2024-01-11T09:40:14;35.67;;;19.63;;
85133;SDS011;75590;42.690;23.356;2024-01-11T09:42:42;32.10;;;18.23;;
85133;SDS011;75590;42.690;23.356;2024-01-11T09:45:09;28.45;;;17.75;;
85133;SDS011;75590;42.690;23.356;2024-01-11T09:47:37;30.65;;;19.17;;
85133;SDS011;75590;42.690;23.356;2024-01-11T09:50:04;36.10;;;19.48;;
85133;SDS011;75590;42.690;23.356;2024-01-11T09:52:30;33.83;;;18.95;;
85133;SDS011;75590;42.690;23.356;2024-01-11T09:54:57;36.50;;;19.45;;
85133;SDS011;75590;42.690;23.356;2024-01-11T09:57:26;30.13;;;17.92;;
85133;SDS011;75590;42.690;23.356;2024-01-11T09:59:55;38.50;;;20.95;;
85133;SDS011;75590;42.690;23.356;2024-01-11T10:02:25;35.15;;;19.60;;
85133;SDS011;75590;42.690;23.356;2024-01-11T10:04:54;36.17;;;20.65;;
85133;SDS011;75590;42.690;23.356;2024-01-11T10:07:23;32.50;;;19.80;;
85133;SDS011;75590;42.690;23.356;2024-01-11T10:09:52;35.50;;;20.45;;
85133;SDS011;75590;42.690;23.356;2024-01-11T10:12:18;34.92;;;20.42;;
85133;SDS011;75590;42.690;23.356;2024-01-11T10:14:46;41.53;;;19.85;;
85133;SDS011;75590;42.690;23.356;2024-01-11T10:17:12;32.55;;;19.77;;
85133;SDS011;75590;42.690;23.356;2024-01-11T10:19:38;34.08;;;20.98;;
85133;SDS011;75590;42.690;23.356;2024-01-11T10:22:03;35.03;;;20.10;;
85133;SDS011;75590;42.690;23.356;2024-01-11T10:24:30;36.00;;;18.58;;
85133;SDS011;75590;42.690;23.356;2024-01-11T10:26:55;32.72;;;19.38;;
85133;SDS011;75590;42.690;23.356;2024-01-11T10:29:22;37.95;;;19.83;;
85133;SDS011;75590;42.690;23.356;2024-01-11T10:31:49;38.10;;;22.52;;
85133;SDS011;75590;42.690;23.356;2024-01-11T10:34:15;38.35;;;21.27;;
85133;SDS011;75590;42.690;23.356;2024-01-11T10:36:41;39.10;;;22.70;;
85133;SDS011;75590;42.690;23.356;2024-01-11T10:39:06;37.25;;;22.00;;
85133;SDS011;75590;42.690;23.356;2024-01-11T10:41:41;39.28;;;19.95;;
85133;SDS011;75590;42.690;23.356;2024-01-11T10:44:16;39.00;;;21.92;;
85133;SDS011;75590;42.690;23.356;2024-01-11T10:46:49;39.80;;;21.00;;
85133;SDS011;75590;42.690;23.356;2024-01-11T10:49:16;37.83;;;21.25;;
85133;SDS011;75590;42.690;23.356;2024-01-11T10:51:43;38.17;;;22.45;;
85133;SDS011;75590;42.690;23.356;2024-01-11T10:54:19;44.75;;;21.10;;
85133;SDS011;75590;42.690;23.356;2024-01-11T10:56:45;40.85;;;22.80;;
85133;SDS011;75590;42.690;23.356;2024-01-11T10:59:11;39.47;;;21.60;;
85133;SDS011;75590;42.690;23.356;2024-01-11T11:01:38;48.42;;;23.88;;
85133;SDS011;75590;42.690;23.356;2024-01-11T11:04:06;38.00;;;22.48;;
85133;SDS011;75590;42.690;23.356;2024-01-11T11:06:34;42.80;;;23.55;;
85133;SDS011;75590;42.690;23.356;2024-01-11T11:09:00;41.65;;;21.77;;
85133;SDS011;75590;42.690;23.356;2024-01-11T11:11:29;46.17;;;26.30;;
85133;SDS011;75590;42.690;23.356;2024-01-11T11:13:56;37.45;;;20.90;;
85133;SDS011;75590;42.690;23.356;2024-01-11T11:16:24;42.58;;;25.15;;
85133;SDS011;75590;42.690;23.356;2024-01-11T11:18:52;47.25;;;25.33;;
85133;SDS011;75590;42.690;23.356;2024-01-11T11:21:19;42.38;;;24.15;;
85133;SDS011;75590;42.690;23.356;2024-01-11T11:23:46;45.20;;;24.63;;
85133;SDS011;75590;42.690;23.356;2024-01-11T11:26:15;40.70;;;21.70;;
85133;SDS011;75590;42.690;23.356;2024-01-11T11:28:42;44.45;;;21.58;;
85133;SDS011;75590;42.690;23.356;2024-01-11T11:31:08;41.25;;;22.35;;
85133;SDS011;75590;42.690;23.356;2024-01-11T11:33:36;44.13;;;23.20;;
85133;SDS011;75590;42.690;23.356;2024-01-11T11:36:03;42.25;;;19.80;;
85133;SDS011;75590;42.690;23.356;2024-01-11T11:38:30;32.60;;;18.80;;
85133;SDS011;75590;42.690;23.356;2024-01-11T11:40:58;34.45;;;19.55;;
85133;SDS011;75590;42.690;23.356;2024-01-11T11:43:25;38.75;;;19.00;;
85133;SDS011;75590;42.690;23.356;2024-01-11T11:45:52;29.35;;;17.38;;
85133;SDS011;75590;42.690;23.356;2024-01-11T11:53:33;35.35;;;20.48;;
85133;SDS011;75590;42.690;23.356;2024-01-11T11:55:59;39.50;;;19.00;;
85133;SDS011;75590;42.690;23.356;2024-01-11T11:58:25;31.15;;;17.92;;
85133;SDS011;75590;42.690;23.356;2024-01-11T12:00:52;36.45;;;18.38;;
85133;SDS011;75590;42.690;23.356;2024-01-11T12:03:18;25.65;;;12.43;;
85133;SDS011;75590;42.690;23.356;2024-01-11T12:05:44;24.92;;;10.82;;
85133;SDS011;75590;42.690;23.356;2024-01-11T12:08:09;22.00;;;12.25;;
85133;SDS011;75590;42.690;23.356;2024-01-11T12:10:35;13.00;;;7.72;;
85133;SDS011;75590;42.690;23.356;2024-01-11T12:13:01;12.60;;;7.82;;
85133;SDS011;75590;42.690;23.356;2024-01-11T12:15:27;13.48;;;7.28;;
85133;SDS011;75590;42.690;23.356;2024-01-11T12:17:59;12.63;;;7.65;;
85133;SDS011;75590;42.690;23.356;2024-01-11T12:20:24;12.93;;;7.35;;
85133;SDS011;75590;42.690;23.356;2024-01-11T12:22:50;15.98;;;7.82;;
85133;SDS011;75590;42.690;23.356;2024-01-11T12:25:16;12.90;;;6.95;;
85133;SDS011;75590;42.690;23.356;2024-01-11T12:27:41;16.45;;;9.85;;
85133;SDS011;75590;42.690;23.356;2024-01-11T12:30:08;19.95;;;7.90;;
85133;SDS011;75590;42.690;23.356;2024-01-11T12:32:39;12.13;;;7.40;;
85133;SDS011;75590;42.690;23.356;2024-01-11T12:35:05;18.52;;;7.53;;
85133;SDS011;75590;42.690;23.356;2024-01-11T12:37:32;14.05;;;7.65;;
85133;SDS011;75590;42.690;23.356;2024-01-11T12:39:58;17.27;;;7.65;;
85133;SDS011;75590;42.690;23.356;2024-01-11T12:42:24;14.57;;;7.88;;
85133;SDS011;75590;42.690;23.356;2024-01-11T12:44:50;12.38;;;5.82;;
85133;SDS011;75590;42.690;23.356;2024-01-11T12:47:16;12.45;;;5.38;;
85133;SDS011;75590;42.690;23.356;2024-01-11T12:49:46;9.63;;;5.57;;
85133;SDS011;75590;42.690;23.356;2024-01-11T12:52:17;7.57;;;4.22;;
85133;SDS011;75590;42.690;23.356;2024-01-11T12:54:44;5.65;;;3.45;;
85133;SDS011;75590;42.690;23.356;2024-01-11T12:57:19;7.05;;;3.88;;
85133;SDS011;75590;42.690;23.356;2024-01-11T12:59:47;6.32;;;3.88;;
85133;SDS011;75590;42.690;23.356;2024-01-11T13:02:13;7.45;;;3.95;;
85133;SDS011;75590;42.690;23.356;2024-01-11T13:04:40;3.17;;;2.78;;
85133;SDS011;75590;42.690;23.356;2024-01-11T13:07:11;6.45;;;4.35;;
85133;SDS011;75590;42.690;23.356;2024-01-11T13:09:37;7.15;;;3.60;;
85133;SDS011;75590;42.690;23.356;2024-01-11T13:12:03;8.27;;;3.90;;
85133;SDS011;75590;42.690;23.356;2024-01-11T13:14:29;8.18;;;3.83;;
85133;SDS011;75590;42.690;23.356;2024-01-11T13:16:54;5.70;;;3.60;;
85133;SDS011;75590;42.690;23.356;2024-01-11T13:19:20;4.72;;;3.05;;
85133;SDS011;75590;42.690;23.356;2024-01-11T13:21:45;6.45;;;3.00;;
85133;SDS011;75590;42.690;23.356;2024-01-11T13:24:11;5.35;;;2.80;;
85133;SDS011;75590;42.690;23.356;2024-01-11T13:26:38;7.72;;;3.55;;
85133;SDS011;75590;42.690;23.356;2024-01-11T13:29:04;6.20;;;3.20;;
85133;SDS011;75590;42.690;23.356;2024-01-11T13:31:30;5.75;;;3.15;;
85133;SDS011;75590;42.690;23.356;2024-01-11T13:33:56;5.28;;;3.25;;
85133;SDS011;75590;42.690;23.356;2024-01-11T13:36:22;7.22;;;3.55;;
85133;SDS011;75590;42.690;23.356;2024-01-11T13:38:48;4.68;;;2.80;;
85133;SDS011;75590;42.690;23.356;2024-01-11T13:41:18;5.53;;;2.65;;
85133;SDS011;75590;42.690;23.356;2024-01-11T13:43:43;3.45;;;2.28;;
85133;SDS011;75590;42.690;23.356;2024-01-11T13:46:09;7.47;;;3.15;;
85133;SDS011;75590;42.690;23.356;2024-01-11T13:48:37;5.70;;;3.53;;
85133;SDS011;75590;42.690;23.356;2024-01-11T13:51:03;6.63;;;3.58;;
85133;SDS011;75590;42.690;23.356;2024-01-11T13:53:29;2.63;;;1.90;;
85133;SDS011;75590;42.690;23.356;2024-01-11T13:55:55;5.18;;;2.88;;
85133;SDS011;75590;42.690;23.356;2024-01-11T13:58:20;5.53;;;3.08;;
85133;SDS011;75590;42.690;23.356;2024-01-11T14:00:46;6.93;;;3.10;;
85133;SDS011;75590;42.690;23.356;2024-01-11T14:03:12;5.65;;;3.65;;
85133;SDS011;75590;42.690;23.356;2024-01-11T14:05:38;6.15;;;3.90;;
85133;SDS011;75590;42.690;23.356;2024-01-11T14:08:03;5.43;;;3.20;;
85133;SDS011;75590;42.690;23.356;2024-01-11T14:10:32;5.35;;;3.22;;
85133;SDS011;75590;42.690;23.356;2024-01-11T14:12:58;5.05;;;2.83;;
85133;SDS011;75590;42.690;23.356;2024-01-11T14:15:24;4.43;;;3.05;;